createdAt,value
2022-11-09T00:00:43.424Z,94686.56
2022-11-09T00:03:11.846Z,94690.09
2022-11-09T00:05:39.767Z,94679.53
2022-11-09T00:08:09.601Z,94689.94
2022-11-09T00:10:37.449Z,94698.06
2022-11-09T00:13:05.503Z,94685.22
2022-11-09T00:15:33.176Z,94685.44
2022-11-09T00:18:01.832Z,94693.75
2022-11-09T00:20:29.484Z,94683.38
2022-11-09T00:22:57.161Z,94684.06
2022-11-09T00:25:26.275Z,94689.44
2022-11-09T00:27:54.332Z,94685.94
2022-11-09T00:30:22.016Z,94683.22
2022-11-09T00:32:49.701Z,94682.19
2022-11-09T00:35:17.396Z,94682.19
2022-11-09T00:37:45.106Z,94687.59
2022-11-09T00:40:13.531Z,94678.44
2022-11-09T00:42:42.611Z,94676.78
2022-11-09T00:45:10.845Z,94677.41
2022-11-09T00:47:38.819Z,94674.09
2022-11-09T00:50:07.251Z,94671.84
2022-11-09T00:52:34.895Z,94670.16
2022-11-09T00:55:02.631Z,94674.31
2022-11-09T00:57:30.322Z,94678.88
2022-11-09T00:59:59.375Z,94680.53
2022-11-09T01:02:27.031Z,94679.72
2022-11-09T01:04:54.786Z,94672.88
2022-11-09T01:07:22.442Z,94671.47
2022-11-09T01:09:50.228Z,94673.31
2022-11-09T01:12:17.921Z,94666.28
2022-11-09T01:14:45.848Z,94673.94
2022-11-09T01:17:14.902Z,94673.31
2022-11-09T01:19:42.733Z,94672.94
2022-11-09T01:22:10.353Z,94667.75
2022-11-09T01:24:37.977Z,94666.13
2022-11-09T01:27:05.727Z,94669.84
2022-11-09T01:29:33.533Z,94672.38
2022-11-09T01:32:01.216Z,94668.03
2022-11-09T01:34:30.492Z,94672.38
2022-11-09T01:36:58.991Z,94670.13
2022-11-09T01:39:26.646Z,94678.22
2022-11-09T01:41:54.349Z,94667.88
2022-11-09T01:44:22.250Z,94677.03
2022-11-09T01:46:52.907Z,94675.38
2022-11-09T01:49:25.488Z,94669.38
2022-11-09T01:51:56.947Z,94667.53
2022-11-09T01:54:27.360Z,94668.59
2022-11-09T01:57:00.447Z,94665.50
2022-11-09T01:59:30.873Z,94665.13
2022-11-09T02:01:59.732Z,94669.91
2022-11-09T02:04:29.422Z,94672.59
2022-11-09T02:06:59.315Z,94673.63
2022-11-09T02:09:29.727Z,94668.72
2022-11-09T02:11:57.568Z,94670.34
2022-11-09T02:14:26.706Z,94665.78
2022-11-09T02:16:54.474Z,94664.34
2022-11-09T02:19:22.130Z,94666.00
2022-11-09T02:21:51.365Z,94664.13
2022-11-09T02:24:19.573Z,94662.25
2022-11-09T02:26:49.675Z,94660.41
2022-11-09T02:29:20.075Z,94657.06
2022-11-09T02:31:49.832Z,94663.16
2022-11-09T02:34:19.386Z,94657.97
2022-11-09T02:36:47.507Z,94657.34
2022-11-09T02:39:19.041Z,94661.53
2022-11-09T02:41:49.543Z,94653.66
2022-11-09T02:44:17.364Z,94653.88
2022-11-09T02:46:45.129Z,94651.78
2022-11-09T02:49:12.836Z,94647.44
2022-11-09T02:51:40.592Z,94645.78
2022-11-09T02:54:08.283Z,94639.56
2022-11-09T02:56:37.430Z,94633.56
2022-11-09T02:59:05.084Z,94647.06
2022-11-09T03:01:32.884Z,94652.44
2022-11-09T03:04:00.582Z,94647.88
2022-11-09T03:06:35.151Z,94654.09
2022-11-09T03:09:03.420Z,94643.28
2022-11-09T03:11:31.113Z,94649.28
2022-11-09T03:14:00.321Z,94646.59
2022-11-09T03:16:28.162Z,94646.59
2022-11-09T03:18:56.724Z,94642.25
2022-11-09T03:21:24.605Z,94644.97
2022-11-09T03:23:53.966Z,94645.41
2022-11-09T03:26:21.972Z,94643.94
2022-11-09T03:28:49.650Z,94642.31
2022-11-09T03:31:18.661Z,94648.75
2022-11-09T03:33:46.381Z,94649.56
2022-11-09T03:36:15.150Z,94644.16
2022-11-09T03:38:42.943Z,94647.09
2022-11-09T03:41:10.603Z,94637.34
2022-11-09T03:43:38.266Z,94640.06
2022-11-09T03:46:06.020Z,94633.84
2022-11-09T03:48:34.968Z,94635.91
2022-11-09T03:51:02.629Z,94635.09
2022-11-09T03:53:30.250Z,94642.97
2022-11-09T03:55:58.736Z,94635.91
2022-11-09T03:58:26.429Z,94628.88
2022-11-09T04:00:54.106Z,94634.28
2022-11-09T04:03:22.017Z,94625.97
2022-11-09T04:05:51.278Z,94621.38
2022-11-09T04:08:18.913Z,94626.78
2022-11-09T04:10:46.587Z,94622.88
2022-11-09T04:13:14.227Z,94619.56
2022-11-09T04:15:41.877Z,94623.91
2022-11-09T04:18:12.689Z,94627.22
2022-11-09T04:20:40.480Z,94624.50
2022-11-09T04:23:12.106Z,94631.97
2022-11-09T04:25:40.990Z,94630.94
2022-11-09T04:28:10.749Z,94629.66
2022-11-09T04:30:38.624Z,94620.53
2022-11-09T04:33:06.566Z,94624.03
2022-11-09T04:35:35.018Z,94614.69
2022-11-09T04:38:04.382Z,94621.50
2022-11-09T04:40:34.561Z,94623.97
2022-11-09T04:43:02.688Z,94617.56
2022-11-09T04:45:30.345Z,94628.34
2022-11-09T04:47:59.400Z,94617.09
2022-11-09T04:50:27.411Z,94620.41
2022-11-09T04:52:55.068Z,94621.41
2022-11-09T04:55:22.710Z,94618.25
2022-11-09T04:57:51.743Z,94625.31
2022-11-09T05:00:19.919Z,94631.09
2022-11-09T05:02:47.662Z,94630.03
2022-11-09T05:05:15.405Z,94627.13
2022-11-09T05:07:43.083Z,94625.03
2022-11-09T05:10:11.041Z,94630.19
2022-11-09T05:12:41.196Z,94628.13
2022-11-09T05:15:14.141Z,94627.91
2022-11-09T05:17:41.800Z,94629.75
2022-11-09T05:20:10.628Z,94634.13
2022-11-09T05:22:58.745Z,94622.72
2022-11-09T05:25:26.484Z,94622.09
2022-11-09T05:27:54.484Z,94622.31
2022-11-09T05:30:23.530Z,94629.59
2022-11-09T05:32:51.252Z,94631.47
2022-11-09T05:35:19.109Z,94638.28
2022-11-09T05:37:49.597Z,94643.91
2022-11-09T05:40:18.341Z,94636.66
2022-11-09T05:42:46.457Z,94644.75
2022-11-09T05:45:40.823Z,94657.41
2022-11-09T05:48:06.455Z,94663.47
2022-11-09T05:50:34.179Z,94663.47
2022-11-09T05:53:02.498Z,94659.13
2022-11-09T05:55:30.274Z,94658.72
2022-11-09T05:57:57.964Z,94673.03
2022-11-09T06:00:25.951Z,94674.72
2022-11-09T06:02:53.906Z,94677.41
2022-11-09T06:05:23.019Z,94676.13
2022-11-09T06:07:50.742Z,94683.78
2022-11-09T06:10:18.659Z,94693.13
2022-11-09T06:12:46.482Z,94698.69
2022-11-09T06:15:14.178Z,94707.16
2022-11-09T06:17:44.492Z,94727.25
2022-11-09T06:20:12.702Z,94736.84
2022-11-09T06:22:41.981Z,94739.72
2022-11-09T06:25:09.974Z,94744.69
2022-11-09T06:27:37.816Z,94756.88
2022-11-09T06:30:06.487Z,94760.81
2022-11-09T06:32:34.233Z,94759.09
2022-11-09T06:35:01.894Z,94771.56
2022-11-09T06:37:29.674Z,94763.84
2022-11-09T06:39:58.830Z,94767.53
2022-11-09T06:42:26.524Z,94774.16
2022-11-09T06:44:54.316Z,94766.22
2022-11-09T06:47:22.080Z,94774.28
2022-11-09T06:49:49.777Z,94776.91
2022-11-09T06:52:17.498Z,94781.44
2022-11-09T06:54:45.368Z,94783.69
2022-11-09T06:57:14.737Z,94790.31
2022-11-09T06:59:42.432Z,94796.91
2022-11-09T07:02:11.321Z,94807.69
2022-11-09T07:04:39.050Z,94806.81
2022-11-09T07:07:08.529Z,94807.56
2022-11-09T07:09:36.354Z,94808.56
2022-11-09T07:12:04.517Z,94801.22
2022-11-09T07:14:33.627Z,94797.63
2022-11-09T07:17:01.356Z,94794.00
2022-11-09T07:19:29.663Z,94796.03
2022-11-09T07:21:57.542Z,94784.78
2022-11-09T07:24:25.459Z,94792.22
2022-11-09T07:26:53.120Z,94808.38
2022-11-09T07:29:20.903Z,94792.28
2022-11-09T07:31:50.039Z,94797.84
2022-11-09T07:34:17.806Z,94800.69
2022-11-09T07:36:45.645Z,94788.13
2022-11-09T07:39:13.609Z,94792.72
2022-11-09T07:41:41.363Z,94796.41
2022-11-09T07:44:09.509Z,94788.69
2022-11-09T07:46:37.338Z,94802.13
2022-11-09T07:49:06.703Z,94800.75
2022-11-09T07:51:36.062Z,94802.75
2022-11-09T07:54:03.975Z,94804.78
2022-11-09T07:56:31.683Z,94803.63
2022-11-09T07:58:59.419Z,94807.09
2022-11-09T08:01:27.475Z,94813.13
2022-11-09T08:03:55.387Z,94811.28
2022-11-09T08:06:28.103Z,94802.13
2022-11-09T08:08:56.614Z,94803.81
2022-11-09T08:11:24.522Z,94797.34
2022-11-09T08:13:52.362Z,94811.63
2022-11-09T08:16:20.328Z,94811.16
2022-11-09T08:18:48.127Z,94800.66
2022-11-09T08:21:15.808Z,94809.38
2022-11-09T08:23:45.019Z,94802.75
2022-11-09T08:26:13.329Z,94817.06
2022-11-09T08:28:40.966Z,94818.22
2022-11-09T08:31:09.311Z,94819.06
2022-11-09T08:33:38.969Z,94821.41
2022-11-09T08:36:11.006Z,94828.34
2022-11-09T08:38:39.148Z,94821.19
2022-11-09T08:41:13.258Z,94825.41
2022-11-09T08:43:41.520Z,94826.59
2022-11-09T08:46:09.240Z,94824.94
2022-11-09T08:48:37.092Z,94828.13
2022-11-09T08:51:04.913Z,94828.06
2022-11-09T08:53:32.617Z,94826.06
2022-11-09T08:56:00.306Z,94823.16
2022-11-09T08:58:30.591Z,94837.00
2022-11-09T09:00:58.361Z,94834.28
2022-11-09T09:03:26.187Z,94835.94
2022-11-09T09:05:53.986Z,94845.00
2022-11-09T09:08:23.250Z,94835.63
2022-11-09T09:10:51.326Z,94822.22
2022-11-09T09:13:22.724Z,94830.88
2022-11-09T09:15:51.944Z,94831.22
2022-11-09T09:18:19.883Z,94831.22
2022-11-09T09:20:47.776Z,94838.66
2022-11-09T09:23:17.000Z,94825.72
2022-11-09T09:25:45.021Z,94819.00
2022-11-09T09:28:12.916Z,94831.13
2022-11-09T09:30:40.675Z,94825.84
2022-11-09T09:33:09.776Z,94824.34
2022-11-09T09:35:37.481Z,94831.56
2022-11-09T09:38:05.303Z,94831.97
2022-11-09T09:40:38.046Z,94835.06
2022-11-09T09:43:05.733Z,94834.38
2022-11-09T09:45:35.197Z,94826.06
2022-11-09T09:48:06.747Z,94835.72
2022-11-09T09:50:39.063Z,94834.53
2022-11-09T09:53:29.596Z,94838.97
2022-11-09T09:56:02.092Z,94840.84
2022-11-09T09:58:31.589Z,94834.63
2022-11-09T10:01:12.115Z,94833.88
2022-11-09T10:03:39.826Z,94838.03
2022-11-09T10:06:34.947Z,94835.38
2022-11-09T10:09:08.165Z,94840.63
2022-11-09T10:11:42.749Z,94837.75
2022-11-09T10:14:41.970Z,94840.63
2022-11-09T10:17:15.823Z,94842.22
2022-11-09T10:19:58.419Z,94829.47
2022-11-09T10:22:36.682Z,94829.59
2022-11-09T10:25:27.492Z,94820.47
2022-11-09T10:27:59.656Z,94824.94
2022-11-09T10:30:29.049Z,94825.59
2022-11-09T10:32:58.248Z,94815.81
2022-11-09T10:35:30.674Z,94818.63
2022-11-09T10:37:59.792Z,94812.03
2022-11-09T10:40:31.561Z,94815.88
2022-11-09T10:43:00.834Z,94811.78
2022-11-09T10:45:31.625Z,94804.63
2022-11-09T10:47:59.759Z,94800.69
2022-11-09T10:50:34.539Z,94800.72
2022-11-09T10:53:14.340Z,94805.31
2022-11-09T10:55:51.892Z,94794.03
2022-11-09T10:58:28.194Z,94796.75
2022-11-09T11:00:59.779Z,94795.84
2022-11-09T11:03:27.481Z,94784.53
2022-11-09T11:05:59.332Z,94787.50
2022-11-09T11:08:35.345Z,94782.97
2022-11-09T11:11:38.056Z,94776.88
2022-11-09T11:14:17.121Z,94772.22
2022-11-09T11:16:50.708Z,94775.78
2022-11-09T11:19:32.303Z,94773.53
2022-11-09T11:22:22.901Z,94764.72
2022-11-09T11:24:59.359Z,94771.00
2022-11-09T11:27:33.250Z,94764.59
2022-11-09T11:30:07.416Z,94768.06
2022-11-09T11:32:35.385Z,94764.81
2022-11-09T11:35:04.986Z,94763.34
2022-11-09T11:37:43.383Z,94768.94
2022-11-09T11:40:18.475Z,94764.53
2022-11-09T11:42:56.803Z,94757.28
2022-11-09T11:45:41.665Z,94757.06
2022-11-09T11:48:36.358Z,94761.94
2022-11-09T11:51:09.300Z,94758.63
2022-11-09T11:53:56.141Z,94762.47
2022-11-09T11:56:28.403Z,94752.06
2022-11-09T11:59:00.586Z,94743.19
2022-11-09T12:01:37.789Z,94752.19
2022-11-09T12:04:16.854Z,94753.84
2022-11-09T12:06:55.930Z,94748.72
2022-11-09T12:09:35.312Z,94744.25
2022-11-09T12:12:14.109Z,94746.50
2022-11-09T12:14:50.462Z,94739.97
2022-11-09T12:17:28.152Z,94742.22
2022-11-09T12:20:19.869Z,94744.00
2022-11-09T12:22:56.051Z,94744.75
2022-11-09T12:25:26.272Z,94743.09
2022-11-09T12:28:04.656Z,94743.59
2022-11-09T12:30:43.180Z,94729.84
2022-11-09T12:33:14.529Z,94731.50
2022-11-09T12:35:44.990Z,94724.06
2022-11-09T12:38:17.001Z,94724.69
2022-11-09T12:40:48.181Z,94727.31
2022-11-09T12:43:22.150Z,94722.56
2022-11-09T12:45:51.495Z,94721.13
2022-11-09T12:48:25.539Z,94726.50
2022-11-09T12:50:53.909Z,94715.94
2022-11-09T12:53:25.065Z,94715.75
2022-11-09T12:55:56.180Z,94711.09
2022-11-09T12:58:27.200Z,94712.19
2022-11-09T13:00:57.016Z,94712.19
2022-11-09T13:03:27.608Z,94707.00
2022-11-09T13:06:13.247Z,94702.56
2022-11-09T13:08:41.723Z,94707.97
2022-11-09T13:11:11.340Z,94702.06
2022-11-09T13:13:40.517Z,94702.81
2022-11-09T13:16:12.467Z,94698.59
2022-11-09T13:18:52.360Z,94701.53
2022-11-09T13:21:40.493Z,94695.72
2022-11-09T13:24:55.732Z,94698.56
2022-11-09T13:27:39.128Z,94701.88
2022-11-09T13:30:39.344Z,94702.47
2022-11-09T13:33:25.059Z,94695.38
2022-11-09T13:36:23.168Z,94711.38
2022-11-09T13:39:40.333Z,94708.63
2022-11-09T13:42:29.754Z,94694.38
2022-11-09T13:45:17.921Z,94704.47
2022-11-09T13:47:52.456Z,94697.88
2022-11-09T13:50:22.196Z,94700.88
2022-11-09T13:52:52.275Z,94694.22
2022-11-09T13:55:25.836Z,94693.88
2022-11-09T13:57:55.116Z,94693.88
2022-11-09T14:00:24.787Z,94701.34
2022-11-09T14:03:00.641Z,94696.16
2022-11-09T14:05:30.383Z,94697.50
2022-11-09T14:08:01.843Z,94707.03
2022-11-09T14:10:47.997Z,94701.38
2022-11-09T14:13:29.156Z,94700.63
2022-11-09T14:15:59.710Z,94704.75
2022-11-09T14:18:38.285Z,94707.22
2022-11-09T14:21:15.999Z,94703.94
2022-11-09T14:23:43.973Z,94709.53
2022-11-09T14:26:18.615Z,94716.19
2022-11-09T14:28:46.657Z,94715.69
2022-11-09T14:31:26.002Z,94709.69
2022-11-09T14:34:02.721Z,94721.47
2022-11-09T14:36:32.350Z,94716.88
2022-11-09T14:39:02.242Z,94723.78
2022-11-09T14:41:30.840Z,94722.69
2022-11-09T14:44:00.557Z,94728.72
2022-11-09T14:46:29.772Z,94725.69
2022-11-09T14:48:58.825Z,94727.63
2022-11-09T14:51:32.137Z,94722.66
2022-11-09T14:54:00.862Z,94723.84
2022-11-09T14:56:29.005Z,94723.31
2022-11-09T14:58:58.040Z,94726.09
2022-11-09T15:01:27.170Z,94732.22
2022-11-09T15:04:09.282Z,94733.09
2022-11-09T15:06:46.132Z,94733.16
2022-11-09T15:09:19.822Z,94745.53
2022-11-09T15:11:48.541Z,94740.66
2022-11-09T15:14:25.092Z,94739.53
2022-11-09T15:16:59.058Z,94750.00
2022-11-09T15:19:31.141Z,94738.59
2022-11-09T15:22:01.924Z,94738.59
2022-11-09T15:24:30.629Z,94753.44
2022-11-09T15:26:59.068Z,94751.22
2022-11-09T15:29:30.721Z,94750.38
2022-11-09T15:32:00.839Z,94755.59
2022-11-09T15:34:33.622Z,94764.38
2022-11-09T15:37:02.923Z,94753.16
2022-11-09T15:39:31.001Z,94752.91
2022-11-09T15:41:58.931Z,94753.72
2022-11-09T15:44:26.748Z,94761.41
2022-11-09T15:46:54.962Z,94769.06
2022-11-09T15:49:24.852Z,94764.94
2022-11-09T15:51:53.619Z,94768.78
2022-11-09T15:54:23.698Z,94770.44
2022-11-09T15:56:52.303Z,94772.63
2022-11-09T15:59:23.159Z,94774.78
2022-11-09T16:01:51.139Z,94779.72
2022-11-09T16:04:19.409Z,94778.63
2022-11-09T16:06:47.322Z,94770.97
2022-11-09T16:09:15.199Z,94780.78
2022-11-09T16:11:44.648Z,94782.16
2022-11-09T16:14:12.460Z,94781.03
2022-11-09T16:16:40.492Z,94788.16
2022-11-09T16:19:08.488Z,94788.94
2022-11-09T16:21:36.397Z,94787.81
2022-11-09T16:24:04.292Z,94798.19
2022-11-09T16:26:32.036Z,94799.22
2022-11-09T16:29:01.381Z,94801.41
2022-11-09T16:31:50.285Z,94816.16
2022-11-09T16:34:17.346Z,94812.63
2022-11-09T16:36:50.855Z,94812.34
2022-11-09T16:39:22.086Z,94818.88
2022-11-09T16:41:51.545Z,94825.72
2022-11-09T16:44:23.499Z,94833.06
2022-11-09T16:46:52.227Z,94839.91
2022-11-09T16:49:20.091Z,94851.91
2022-11-09T16:51:47.892Z,94852.16
2022-11-09T16:54:15.806Z,94847.81
2022-11-09T16:56:43.628Z,94851.34
2022-11-09T16:59:11.424Z,94859.81
2022-11-09T17:01:40.839Z,94862.78
2022-11-09T17:04:08.721Z,94869.38
2022-11-09T17:06:37.032Z,94876.16
2022-11-09T17:09:05.095Z,94876.13
2022-11-09T17:11:32.872Z,94885.38
2022-11-09T17:14:01.531Z,94891.69
2022-11-09T17:16:29.367Z,94899.00
2022-11-09T17:18:59.340Z,94899.22
2022-11-09T17:21:28.815Z,94900.00
2022-11-09T17:23:57.368Z,94903.81
2022-11-09T17:26:26.544Z,94892.72
2022-11-09T17:28:54.464Z,94901.47
2022-11-09T17:31:23.969Z,94899.25
2022-11-09T17:33:51.784Z,94906.59
2022-11-09T17:36:41.550Z,94910.69
2022-11-09T17:39:09.502Z,94908.47
2022-11-09T17:41:42.244Z,94916.38
2022-11-09T17:44:10.460Z,94919.09
2022-11-09T17:46:38.313Z,94921.22
2022-11-09T17:49:09.920Z,94917.91
2022-11-09T17:51:39.498Z,94929.06
2022-11-09T17:54:07.361Z,94931.53
2022-11-09T17:56:35.836Z,94930.47
2022-11-09T17:59:05.131Z,94932.91
2022-11-09T18:01:36.568Z,94942.41
2022-11-09T18:04:09.135Z,94940.28
2022-11-09T18:06:36.949Z,94944.88
2022-11-09T18:11:54.300Z,94943.97
2022-11-09T18:14:22.059Z,94945.81
2022-11-09T18:16:49.775Z,94945.25
2022-11-09T18:19:17.533Z,94943.88
2022-11-09T18:21:45.823Z,94955.53
2022-11-09T18:24:17.188Z,94956.25
2022-11-09T18:27:13.551Z,94954.88
2022-11-09T18:29:42.285Z,94961.97
2022-11-09T18:32:14.035Z,94961.16
2022-11-09T18:35:07.794Z,94955.91
2022-11-09T18:37:35.730Z,94962.94
2022-11-09T18:40:05.301Z,94965.66
2022-11-09T18:42:33.021Z,94965.34
2022-11-09T18:45:01.338Z,94960.31
2022-11-09T18:47:29.244Z,94960.31
2022-11-09T18:49:56.998Z,94967.13
2022-11-09T18:52:25.084Z,94980.28
2022-11-09T18:54:52.950Z,94980.28
2022-11-09T18:57:22.225Z,94969.56
2022-11-09T18:59:50.036Z,94980.47
2022-11-09T19:02:17.871Z,94972.03
2022-11-09T19:04:46.106Z,94968.25
2022-11-09T19:07:13.971Z,94986.75
2022-11-09T19:09:42.369Z,94983.97
2022-11-09T19:12:11.653Z,94986.44
2022-11-09T19:14:41.954Z,94981.50
2022-11-09T19:17:12.894Z,94983.31
2022-11-09T19:19:40.795Z,94992.31
2022-11-09T19:22:15.829Z,94991.66
2022-11-09T19:24:43.725Z,94987.47
2022-11-09T19:27:11.558Z,94991.59
2022-11-09T19:29:40.784Z,94995.41
2022-11-09T19:32:08.578Z,94995.91
2022-11-09T19:34:36.288Z,94996.38
2022-11-09T19:37:04.035Z,95006.47
2022-11-09T19:39:34.755Z,95003.50
2022-11-09T19:42:03.835Z,95002.81
2022-11-09T19:44:31.605Z,94999.28
2022-11-09T19:47:00.705Z,95008.03
2022-11-09T19:49:28.411Z,95009.44
2022-11-09T19:51:56.632Z,95001.84
2022-11-09T19:54:24.427Z,95012.75
2022-11-09T19:56:52.188Z,95016.53
2022-11-09T19:59:20.807Z,95014.03
2022-11-09T20:01:48.484Z,95018.69
2022-11-09T20:04:17.569Z,95014.31
2022-11-09T20:06:45.379Z,95017.88
2022-11-09T20:09:13.434Z,95022.31
2022-11-09T20:11:58.622Z,95018.75
2022-11-09T20:14:26.366Z,95018.75
2022-11-09T20:16:54.826Z,95013.06
2022-11-09T20:19:25.389Z,95024.78
2022-11-09T20:21:53.144Z,95021.25
2022-11-09T20:24:20.869Z,95023.97
2022-11-09T20:26:48.665Z,95025.31
2022-11-09T20:29:16.692Z,95031.88
2022-11-09T20:31:44.387Z,95025.94
2022-11-09T20:34:12.172Z,95040.38
2022-11-09T20:36:41.531Z,95028.66
2022-11-09T20:39:09.333Z,95040.63
2022-11-09T20:41:37.648Z,95044.44
2022-11-09T20:44:05.384Z,95040.31
2022-11-09T20:46:36.449Z,95049.31
2022-11-09T20:49:05.122Z,95048.50
2022-11-09T20:51:33.269Z,95048.50
2022-11-09T20:54:06.930Z,95046.50
2022-11-09T20:56:35.505Z,95057.91
2022-11-09T20:59:03.262Z,95053.19
2022-11-09T21:01:31.174Z,95062.19
2022-11-09T21:03:58.958Z,95070.03
2022-11-09T21:06:26.674Z,95067.00
2022-11-09T21:08:55.930Z,95070.53
2022-11-09T21:11:28.611Z,95076.78
2022-11-09T21:13:57.215Z,95076.22
2022-11-09T21:16:25.295Z,95079.44
2022-11-09T21:18:53.766Z,95086.78
2022-11-09T21:21:24.506Z,95084.88
2022-11-09T21:24:10.459Z,95088.44
2022-11-09T21:26:58.021Z,95091.19
2022-11-09T21:29:44.155Z,95086.22
2022-11-09T21:32:12.941Z,95094.13
2022-11-09T21:34:41.859Z,95102.06
2022-11-09T21:37:11.460Z,95097.44
2022-11-09T21:39:39.771Z,95108.34
2022-11-09T21:42:11.403Z,95109.41
2022-11-09T21:44:40.640Z,95110.47
2022-11-09T21:47:10.046Z,95121.38
2022-11-09T21:49:39.100Z,95113.22
2022-11-09T21:52:07.415Z,95126.22
2022-11-09T22:24:33.986Z,95149.50
2022-11-09T23:03:19.421Z,95183.03
2022-11-09T23:20:49.319Z,95184.50
2022-11-09T23:24:14.940Z,95187.13
